sensor_id;sensor_type;location;lat;lon;timestamp;P1;durP1;ratioP1;P2;durP2;ratioP2
44214;SDS011;29884;47.450;19.124;2023-06-22T00:01:18;8.15;;;2.63;;
44214;SDS011;29884;47.450;19.124;2023-06-22T00:03:44;4.03;;;2.15;;
44214;SDS011;29884;47.450;19.124;2023-06-22T00:06:09;6.82;;;2.42;;
44214;SDS011;29884;47.450;19.124;2023-06-22T00:08:35;5.95;;;2.47;;
44214;SDS011;29884;47.450;19.124;2023-06-22T00:11:01;4.80;;;2.30;;
44214;SDS011;29884;47.450;19.124;2023-06-22T00:13:27;6.20;;;2.85;;
44214;SDS011;29884;47.450;19.124;2023-06-22T00:15:52;6.20;;;2.55;;
44214;SDS011;29884;47.450;19.124;2023-06-22T00:18:18;4.45;;;2.63;;
44214;SDS011;29884;47.450;19.124;2023-06-22T00:20:45;6.57;;;2.60;;
44214;SDS011;29884;47.450;19.124;2023-06-22T00:23:11;8.32;;;3.22;;
44214;SDS011;29884;47.450;19.124;2023-06-22T00:25:39;7.18;;;2.72;;
44214;SDS011;29884;47.450;19.124;2023-06-22T00:28:08;6.47;;;2.97;;
44214;SDS011;29884;47.450;19.124;2023-06-22T00:30:34;4.00;;;2.20;;
44214;SDS011;29884;47.450;19.124;2023-06-22T00:33:00;4.75;;;3.05;;
44214;SDS011;29884;47.450;19.124;2023-06-22T00:35:26;6.13;;;2.72;;
44214;SDS011;29884;47.450;19.124;2023-06-22T00:37:55;4.97;;;2.50;;
44214;SDS011;29884;47.450;19.124;2023-06-22T00:40:28;5.28;;;2.33;;
44214;SDS011;29884;47.450;19.124;2023-06-22T00:42:55;3.75;;;2.17;;
44214;SDS011;29884;47.450;19.124;2023-06-22T00:45:21;5.13;;;2.10;;
44214;SDS011;29884;47.450;19.124;2023-06-22T00:47:51;4.57;;;2.58;;
44214;SDS011;29884;47.450;19.124;2023-06-22T00:50:21;6.20;;;2.78;;
44214;SDS011;29884;47.450;19.124;2023-06-22T00:52:49;6.18;;;2.83;;
44214;SDS011;29884;47.450;19.124;2023-06-22T00:55:17;5.43;;;2.58;;
44214;SDS011;29884;47.450;19.124;2023-06-22T00:57:45;6.32;;;2.90;;
44214;SDS011;29884;47.450;19.124;2023-06-22T01:00:12;5.00;;;2.60;;
44214;SDS011;29884;47.450;19.124;2023-06-22T01:02:41;4.13;;;2.40;;
44214;SDS011;29884;47.450;19.124;2023-06-22T01:05:06;6.97;;;3.05;;
44214;SDS011;29884;47.450;19.124;2023-06-22T01:07:35;5.78;;;2.35;;
44214;SDS011;29884;47.450;19.124;2023-06-22T01:12:42;6.10;;;2.88;;
44214;SDS011;29884;47.450;19.124;2023-06-22T01:15:11;5.05;;;2.67;;
44214;SDS011;29884;47.450;19.124;2023-06-22T01:17:46;4.82;;;2.50;;
44214;SDS011;29884;47.450;19.124;2023-06-22T01:20:14;4.50;;;2.40;;
44214;SDS011;29884;47.450;19.124;2023-06-22T01:25:53;4.43;;;2.35;;
44214;SDS011;29884;47.450;19.124;2023-06-22T01:28:43;5.20;;;2.45;;
44214;SDS011;29884;47.450;19.124;2023-06-22T01:31:12;8.73;;;2.85;;
44214;SDS011;29884;47.450;19.124;2023-06-22T01:33:41;3.45;;;2.78;;
44214;SDS011;29884;47.450;19.124;2023-06-22T01:36:08;6.93;;;2.92;;
44214;SDS011;29884;47.450;19.124;2023-06-22T01:38:35;5.15;;;2.60;;
44214;SDS011;29884;47.450;19.124;2023-06-22T01:41:03;7.22;;;3.33;;
44214;SDS011;29884;47.450;19.124;2023-06-22T01:43:29;6.10;;;2.72;;
44214;SDS011;29884;47.450;19.124;2023-06-22T01:45:56;7.20;;;3.10;;
44214;SDS011;29884;47.450;19.124;2023-06-22T01:48:23;7.50;;;2.90;;
44214;SDS011;29884;47.450;19.124;2023-06-22T01:50:50;7.13;;;3.22;;
44214;SDS011;29884;47.450;19.124;2023-06-22T01:53:17;4.28;;;2.85;;
44214;SDS011;29884;47.450;19.124;2023-06-22T01:55:43;7.47;;;2.92;;
44214;SDS011;29884;47.450;19.124;2023-06-22T01:58:09;8.38;;;2.88;;
44214;SDS011;29884;47.450;19.124;2023-06-22T02:00:36;4.93;;;2.55;;
44214;SDS011;29884;47.450;19.124;2023-06-22T02:03:14;4.18;;;2.63;;
44214;SDS011;29884;47.450;19.124;2023-06-22T02:05:46;6.13;;;2.97;;
44214;SDS011;29884;47.450;19.124;2023-06-22T02:08:22;9.73;;;3.42;;
44214;SDS011;29884;47.450;19.124;2023-06-22T02:10:50;3.65;;;2.72;;
44214;SDS011;29884;47.450;19.124;2023-06-22T02:13:17;4.97;;;2.53;;
44214;SDS011;29884;47.450;19.124;2023-06-22T02:15:44;7.60;;;2.90;;
44214;SDS011;29884;47.450;19.124;2023-06-22T02:18:11;5.53;;;3.22;;
44214;SDS011;29884;47.450;19.124;2023-06-22T02:20:37;5.97;;;2.40;;
44214;SDS011;29884;47.450;19.124;2023-06-22T02:23:04;6.88;;;2.88;;
44214;SDS011;29884;47.450;19.124;2023-06-22T02:25:31;4.20;;;2.70;;
44214;SDS011;29884;47.450;19.124;2023-06-22T02:27:57;4.32;;;2.47;;
44214;SDS011;29884;47.450;19.124;2023-06-22T02:30:23;4.18;;;2.63;;
44214;SDS011;29884;47.450;19.124;2023-06-22T02:33:00;7.22;;;2.92;;
44214;SDS011;29884;47.450;19.124;2023-06-22T02:35:27;4.60;;;2.83;;
44214;SDS011;29884;47.450;19.124;2023-06-22T02:37:57;5.90;;;2.65;;
44214;SDS011;29884;47.450;19.124;2023-06-22T02:40:26;6.43;;;2.75;;
44214;SDS011;29884;47.450;19.124;2023-06-22T02:42:52;9.50;;;3.13;;
44214;SDS011;29884;47.450;19.124;2023-06-22T02:45:18;11.63;;;3.83;;
44214;SDS011;29884;47.450;19.124;2023-06-22T02:47:43;7.35;;;2.40;;
44214;SDS011;29884;47.450;19.124;2023-06-22T02:50:09;6.13;;;3.17;;
44214;SDS011;29884;47.450;19.124;2023-06-22T02:52:35;5.90;;;3.20;;
44214;SDS011;29884;47.450;19.124;2023-06-22T02:55:01;4.55;;;2.75;;
44214;SDS011;29884;47.450;19.124;2023-06-22T02:57:27;5.43;;;2.63;;
44214;SDS011;29884;47.450;19.124;2023-06-22T02:59:53;8.88;;;3.03;;
44214;SDS011;29884;47.450;19.124;2023-06-22T03:02:20;7.88;;;3.00;;
44214;SDS011;29884;47.450;19.124;2023-06-22T03:04:46;8.02;;;3.30;;
44214;SDS011;29884;47.450;19.124;2023-06-22T03:07:14;5.30;;;3.85;;
44214;SDS011;29884;47.450;19.124;2023-06-22T03:09:40;6.05;;;2.83;;
44214;SDS011;29884;47.450;19.124;2023-06-22T03:12:07;6.55;;;2.75;;
44214;SDS011;29884;47.450;19.124;2023-06-22T03:14:33;5.43;;;2.88;;
44214;SDS011;29884;47.450;19.124;2023-06-22T03:16:58;4.85;;;3.30;;
44214;SDS011;29884;47.450;19.124;2023-06-22T03:19:28;6.80;;;3.67;;
44214;SDS011;29884;47.450;19.124;2023-06-22T03:21:56;7.45;;;2.78;;
44214;SDS011;29884;47.450;19.124;2023-06-22T03:24:23;10.10;;;3.25;;
44214;SDS011;29884;47.450;19.124;2023-06-22T03:26:48;6.00;;;3.10;;
44214;SDS011;29884;47.450;19.124;2023-06-22T03:29:14;5.38;;;3.78;;
44214;SDS011;29884;47.450;19.124;2023-06-22T03:31:40;7.25;;;3.75;;
44214;SDS011;29884;47.450;19.124;2023-06-22T03:34:06;5.90;;;3.22;;
44214;SDS011;29884;47.450;19.124;2023-06-22T03:36:32;8.13;;;3.40;;
44214;SDS011;29884;47.450;19.124;2023-06-22T03:38:57;10.15;;;3.38;;
44214;SDS011;29884;47.450;19.124;2023-06-22T03:41:23;7.63;;;3.35;;
44214;SDS011;29884;47.450;19.124;2023-06-22T03:43:50;6.80;;;3.63;;
44214;SDS011;29884;47.450;19.124;2023-06-22T03:46:16;5.70;;;3.50;;
44214;SDS011;29884;47.450;19.124;2023-06-22T03:48:41;6.82;;;3.40;;
44214;SDS011;29884;47.450;19.124;2023-06-22T03:51:07;6.00;;;3.38;;
44214;SDS011;29884;47.450;19.124;2023-06-22T03:53:33;5.38;;;3.45;;
44214;SDS011;29884;47.450;19.124;2023-06-22T03:55:59;7.25;;;3.40;;
44214;SDS011;29884;47.450;19.124;2023-06-22T03:58:24;5.88;;;3.50;;
44214;SDS011;29884;47.450;19.124;2023-06-22T04:00:51;6.55;;;3.78;;
44214;SDS011;29884;47.450;19.124;2023-06-22T04:03:18;6.32;;;3.78;;
44214;SDS011;29884;47.450;19.124;2023-06-22T04:05:44;7.30;;;3.72;;
44214;SDS011;29884;47.450;19.124;2023-06-22T04:08:10;10.30;;;3.63;;
44214;SDS011;29884;47.450;19.124;2023-06-22T04:10:37;8.25;;;4.05;;
44214;SDS011;29884;47.450;19.124;2023-06-22T04:13:03;7.15;;;3.72;;
44214;SDS011;29884;47.450;19.124;2023-06-22T04:15:29;7.57;;;3.92;;
44214;SDS011;29884;47.450;19.124;2023-06-22T04:17:55;5.47;;;3.50;;
44214;SDS011;29884;47.450;19.124;2023-06-22T04:20:21;6.25;;;3.75;;
44214;SDS011;29884;47.450;19.124;2023-06-22T04:22:47;9.43;;;4.68;;
44214;SDS011;29884;47.450;19.124;2023-06-22T04:25:12;6.25;;;3.63;;
44214;SDS011;29884;47.450;19.124;2023-06-22T04:27:38;6.00;;;3.85;;
44214;SDS011;29884;47.450;19.124;2023-06-22T04:30:07;9.18;;;4.20;;
44214;SDS011;29884;47.450;19.124;2023-06-22T04:32:36;10.52;;;4.18;;
44214;SDS011;29884;47.450;19.124;2023-06-22T04:35:02;9.15;;;4.35;;
44214;SDS011;29884;47.450;19.124;2023-06-22T04:37:30;8.40;;;4.03;;
44214;SDS011;29884;47.450;19.124;2023-06-22T04:39:56;8.82;;;4.22;;
44214;SDS011;29884;47.450;19.124;2023-06-22T04:42:21;8.85;;;4.45;;
44214;SDS011;29884;47.450;19.124;2023-06-22T04:44:47;9.98;;;4.97;;
44214;SDS011;29884;47.450;19.124;2023-06-22T04:47:13;10.52;;;4.95;;
44214;SDS011;29884;47.450;19.124;2023-06-22T04:49:39;9.65;;;4.80;;
44214;SDS011;29884;47.450;19.124;2023-06-22T04:52:08;11.05;;;4.63;;
44214;SDS011;29884;47.450;19.124;2023-06-22T04:54:35;12.55;;;4.78;;
44214;SDS011;29884;47.450;19.124;2023-06-22T04:57:02;11.15;;;4.95;;
44214;SDS011;29884;47.450;19.124;2023-06-22T04:59:30;7.55;;;4.63;;
44214;SDS011;29884;47.450;19.124;2023-06-22T05:01:57;8.48;;;4.68;;
44214;SDS011;29884;47.450;19.124;2023-06-22T05:04:24;8.13;;;5.15;;
44214;SDS011;29884;47.450;19.124;2023-06-22T05:06:52;12.65;;;5.63;;
44214;SDS011;29884;47.450;19.124;2023-06-22T05:09:18;12.85;;;5.43;;
44214;SDS011;29884;47.450;19.124;2023-06-22T05:11:44;11.02;;;5.43;;
44214;SDS011;29884;47.450;19.124;2023-06-22T05:14:10;11.40;;;5.82;;
44214;SDS011;29884;47.450;19.124;2023-06-22T05:16:37;10.38;;;6.22;;
44214;SDS011;29884;47.450;19.124;2023-06-22T05:19:03;10.55;;;5.32;;
44214;SDS011;29884;47.450;19.124;2023-06-22T05:21:29;10.32;;;5.20;;
44214;SDS011;29884;47.450;19.124;2023-06-22T05:23:56;12.65;;;7.03;;
44214;SDS011;29884;47.450;19.124;2023-06-22T05:26:27;14.60;;;6.68;;
44214;SDS011;29884;47.450;19.124;2023-06-22T05:28:53;10.00;;;6.13;;
44214;SDS011;29884;47.450;19.124;2023-06-22T05:31:19;10.77;;;5.70;;
44214;SDS011;29884;47.450;19.124;2023-06-22T05:33:45;9.38;;;4.95;;
44214;SDS011;29884;47.450;19.124;2023-06-22T05:36:12;8.60;;;5.10;;
44214;SDS011;29884;47.450;19.124;2023-06-22T05:38:39;11.52;;;5.60;;
44214;SDS011;29884;47.450;19.124;2023-06-22T05:41:05;7.65;;;3.97;;
44214;SDS011;29884;47.450;19.124;2023-06-22T05:43:31;7.20;;;3.10;;
44214;SDS011;29884;47.450;19.124;2023-06-22T05:45:57;8.55;;;3.60;;
44214;SDS011;29884;47.450;19.124;2023-06-22T05:48:23;8.18;;;3.88;;
44214;SDS011;29884;47.450;19.124;2023-06-22T05:50:49;5.82;;;3.55;;
44214;SDS011;29884;47.450;19.124;2023-06-22T05:53:15;8.65;;;3.70;;
44214;SDS011;29884;47.450;19.124;2023-06-22T05:55:41;5.75;;;3.22;;
44214;SDS011;29884;47.450;19.124;2023-06-22T05:58:13;9.43;;;3.03;;
44214;SDS011;29884;47.450;19.124;2023-06-22T06:00:39;7.13;;;2.78;;
44214;SDS011;29884;47.450;19.124;2023-06-22T06:03:06;6.82;;;2.88;;
44214;SDS011;29884;47.450;19.124;2023-06-22T06:05:33;6.80;;;2.88;;
44214;SDS011;29884;47.450;19.124;2023-06-22T06:08:00;5.55;;;2.83;;
44214;SDS011;29884;47.450;19.124;2023-06-22T06:10:26;10.95;;;2.60;;
44214;SDS011;29884;47.450;19.124;2023-06-22T06:12:54;6.63;;;2.60;;
44214;SDS011;29884;47.450;19.124;2023-06-22T06:15:20;8.18;;;2.85;;
44214;SDS011;29884;47.450;19.124;2023-06-22T06:20:13;9.07;;;2.33;;
44214;SDS011;29884;47.450;19.124;2023-06-22T06:22:39;4.47;;;1.90;;
44214;SDS011;29884;47.450;19.124;2023-06-22T06:25:05;7.57;;;2.38;;
44214;SDS011;29884;47.450;19.124;2023-06-22T06:27:31;5.93;;;2.40;;
44214;SDS011;29884;47.450;19.124;2023-06-22T06:29:56;5.22;;;2.22;;
44214;SDS011;29884;47.450;19.124;2023-06-22T06:32:22;7.53;;;2.00;;
44214;SDS011;29884;47.450;19.124;2023-06-22T06:34:48;4.70;;;2.22;;
44214;SDS011;29884;47.450;19.124;2023-06-22T06:37:14;4.15;;;1.52;;
44214;SDS011;29884;47.450;19.124;2023-06-22T06:39:40;4.70;;;1.70;;
44214;SDS011;29884;47.450;19.124;2023-06-22T06:42:06;7.40;;;2.20;;
44214;SDS011;29884;47.450;19.124;2023-06-22T06:44:32;5.97;;;1.83;;
44214;SDS011;29884;47.450;19.124;2023-06-22T06:46:58;5.03;;;1.52;;
44214;SDS011;29884;47.450;19.124;2023-06-22T06:49:24;5.22;;;1.25;;
44214;SDS011;29884;47.450;19.124;2023-06-22T06:51:49;6.57;;;1.70;;
44214;SDS011;29884;47.450;19.124;2023-06-22T06:54:15;6.20;;;1.45;;
44214;SDS011;29884;47.450;19.124;2023-06-22T06:56:41;7.13;;;1.27;;
44214;SDS011;29884;47.450;19.124;2023-06-22T06:59:09;6.88;;;1.85;;
44214;SDS011;29884;47.450;19.124;2023-06-22T07:01:35;4.57;;;1.50;;
44214;SDS011;29884;47.450;19.124;2023-06-22T07:04:01;5.35;;;1.42;;
44214;SDS011;29884;47.450;19.124;2023-06-22T07:06:26;5.40;;;1.30;;
44214;SDS011;29884;47.450;19.124;2023-06-22T07:08:55;3.80;;;0.90;;
44214;SDS011;29884;47.450;19.124;2023-06-22T07:11:20;6.65;;;1.10;;
44214;SDS011;29884;47.450;19.124;2023-06-22T07:13:46;2.90;;;1.20;;
44214;SDS011;29884;47.450;19.124;2023-06-22T07:16:12;5.10;;;1.40;;
44214;SDS011;29884;47.450;19.124;2023-06-22T07:18:39;4.57;;;1.45;;
44214;SDS011;29884;47.450;19.124;2023-06-22T07:21:05;5.47;;;1.35;;
44214;SDS011;29884;47.450;19.124;2023-06-22T07:23:32;3.85;;;1.27;;
44214;SDS011;29884;47.450;19.124;2023-06-22T07:25:58;4.32;;;1.33;;
44214;SDS011;29884;47.450;19.124;2023-06-22T07:28:27;4.50;;;1.10;;
44214;SDS011;29884;47.450;19.124;2023-06-22T07:30:53;5.07;;;1.17;;
44214;SDS011;29884;47.450;19.124;2023-06-22T07:33:18;5.53;;;1.23;;
44214;SDS011;29884;47.450;19.124;2023-06-22T07:35:44;5.57;;;1.40;;
44214;SDS011;29884;47.450;19.124;2023-06-22T07:38:12;5.53;;;1.25;;
44214;SDS011;29884;47.450;19.124;2023-06-22T07:40:37;5.78;;;1.00;;
44214;SDS011;29884;47.450;19.124;2023-06-22T07:43:03;3.42;;;1.27;;
44214;SDS011;29884;47.450;19.124;2023-06-22T07:45:29;3.92;;;1.33;;
44214;SDS011;29884;47.450;19.124;2023-06-22T07:47:55;4.57;;;1.25;;
44214;SDS011;29884;47.450;19.124;2023-06-22T07:50:20;4.38;;;1.27;;
44214;SDS011;29884;47.450;19.124;2023-06-22T07:52:46;6.68;;;1.40;;
44214;SDS011;29884;47.450;19.124;2023-06-22T07:55:13;4.35;;;1.30;;
44214;SDS011;29884;47.450;19.124;2023-06-22T07:57:38;5.72;;;1.48;;
44214;SDS011;29884;47.450;19.124;2023-06-22T08:00:06;4.05;;;1.60;;
44214;SDS011;29884;47.450;19.124;2023-06-22T08:02:39;4.43;;;1.60;;
44214;SDS011;29884;47.450;19.124;2023-06-22T08:05:06;7.13;;;2.00;;
44214;SDS011;29884;47.450;19.124;2023-06-22T08:07:35;2.55;;;1.55;;
44214;SDS011;29884;47.450;19.124;2023-06-22T08:10:05;5.45;;;1.70;;
44214;SDS011;29884;47.450;19.124;2023-06-22T08:12:31;3.15;;;1.80;;
44214;SDS011;29884;47.450;19.124;2023-06-22T08:14:57;5.57;;;1.70;;
44214;SDS011;29884;47.450;19.124;2023-06-22T08:17:23;3.00;;;1.58;;
44214;SDS011;29884;47.450;19.124;2023-06-22T08:19:49;4.88;;;1.75;;
44214;SDS011;29884;47.450;19.124;2023-06-22T08:22:15;3.60;;;2.25;;
44214;SDS011;29884;47.450;19.124;2023-06-22T08:24:42;4.90;;;2.10;;
44214;SDS011;29884;47.450;19.124;2023-06-22T08:27:07;6.03;;;2.53;;
44214;SDS011;29884;47.450;19.124;2023-06-22T08:29:41;4.05;;;2.15;;
44214;SDS011;29884;47.450;19.124;2023-06-22T08:32:10;6.10;;;2.17;;
44214;SDS011;29884;47.450;19.124;2023-06-22T08:34:37;4.57;;;2.40;;
44214;SDS011;29884;47.450;19.124;2023-06-22T08:37:07;6.88;;;2.28;;
44214;SDS011;29884;47.450;19.124;2023-06-22T08:39:34;4.03;;;2.20;;
44214;SDS011;29884;47.450;19.124;2023-06-22T08:41:59;3.22;;;2.53;;
44214;SDS011;29884;47.450;19.124;2023-06-22T08:44:25;4.78;;;2.70;;
44214;SDS011;29884;47.450;19.124;2023-06-22T08:46:51;6.53;;;2.83;;
44214;SDS011;29884;47.450;19.124;2023-06-22T08:49:17;3.55;;;2.58;;
44214;SDS011;29884;47.450;19.124;2023-06-22T08:51:42;3.65;;;2.53;;
44214;SDS011;29884;47.450;19.124;2023-06-22T08:54:10;4.07;;;2.58;;
44214;SDS011;29884;47.450;19.124;2023-06-22T08:56:36;6.18;;;3.03;;
44214;SDS011;29884;47.450;19.124;2023-06-22T08:59:02;4.05;;;2.47;;
44214;SDS011;29884;47.450;19.124;2023-06-22T09:01:27;5.03;;;2.53;;
44214;SDS011;29884;47.450;19.124;2023-06-22T09:03:53;6.43;;;2.30;;
44214;SDS011;29884;47.450;19.124;2023-06-22T09:06:23;4.78;;;2.47;;
44214;SDS011;29884;47.450;19.124;2023-06-22T09:08:49;6.13;;;2.90;;
44214;SDS011;29884;47.450;19.124;2023-06-22T09:11:15;3.92;;;2.35;;
44214;SDS011;29884;47.450;19.124;2023-06-22T09:13:41;5.43;;;2.90;;
44214;SDS011;29884;47.450;19.124;2023-06-22T09:16:07;2.90;;;2.60;;
44214;SDS011;29884;47.450;19.124;2023-06-22T09:18:35;4.18;;;2.80;;
44214;SDS011;29884;47.450;19.124;2023-06-22T09:21:01;4.20;;;2.88;;
44214;SDS011;29884;47.450;19.124;2023-06-22T09:23:27;5.50;;;2.88;;
44214;SDS011;29884;47.450;19.124;2023-06-22T09:25:53;5.07;;;2.63;;
44214;SDS011;29884;47.450;19.124;2023-06-22T09:28:19;5.03;;;2.80;;
44214;SDS011;29884;47.450;19.124;2023-06-22T09:30:45;3.42;;;2.47;;
44214;SDS011;29884;47.450;19.124;2023-06-22T09:33:11;4.63;;;3.33;;
44214;SDS011;29884;47.450;19.124;2023-06-22T09:35:36;5.22;;;2.63;;
44214;SDS011;29884;47.450;19.124;2023-06-22T09:38:02;5.07;;;3.20;;
44214;SDS011;29884;47.450;19.124;2023-06-22T09:40:28;5.90;;;3.30;;
44214;SDS011;29884;47.450;19.124;2023-06-22T09:42:53;5.05;;;2.83;;
44214;SDS011;29884;47.450;19.124;2023-06-22T09:45:19;5.57;;;2.92;;
44214;SDS011;29884;47.450;19.124;2023-06-22T09:47:45;4.80;;;2.90;;
44214;SDS011;29884;47.450;19.124;2023-06-22T09:50:10;4.88;;;2.90;;
44214;SDS011;29884;47.450;19.124;2023-06-22T09:52:36;7.22;;;2.75;;
44214;SDS011;29884;47.450;19.124;2023-06-22T09:55:02;5.22;;;3.15;;
44214;SDS011;29884;47.450;19.124;2023-06-22T09:57:28;9.13;;;3.03;;
44214;SDS011;29884;47.450;19.124;2023-06-22T09:59:55;4.32;;;3.00;;
44214;SDS011;29884;47.450;19.124;2023-06-22T10:02:21;5.57;;;3.30;;
44214;SDS011;29884;47.450;19.124;2023-06-22T10:04:47;4.30;;;3.10;;
44214;SDS011;29884;47.450;19.124;2023-06-22T10:07:13;10.10;;;3.20;;
44214;SDS011;29884;47.450;19.124;2023-06-22T10:09:39;4.70;;;3.00;;
44214;SDS011;29884;47.450;19.124;2023-06-22T10:12:05;3.20;;;2.85;;
44214;SDS011;29884;47.450;19.124;2023-06-22T10:14:30;6.72;;;3.40;;
44214;SDS011;29884;47.450;19.124;2023-06-22T10:16:56;4.07;;;3.10;;
44214;SDS011;29884;47.450;19.124;2023-06-22T10:19:22;4.50;;;2.78;;
44214;SDS011;29884;47.450;19.124;2023-06-22T10:21:48;5.35;;;3.30;;
44214;SDS011;29884;47.450;19.124;2023-06-22T10:24:13;5.50;;;3.13;;
44214;SDS011;29884;47.450;19.124;2023-06-22T10:26:39;5.03;;;2.53;;
44214;SDS011;29884;47.450;19.124;2023-06-22T10:29:05;4.38;;;3.17;;
44214;SDS011;29884;47.450;19.124;2023-06-22T10:31:30;4.85;;;2.90;;
44214;SDS011;29884;47.450;19.124;2023-06-22T10:33:56;3.35;;;2.85;;
44214;SDS011;29884;47.450;19.124;2023-06-22T10:36:22;8.60;;;3.13;;
44214;SDS011;29884;47.450;19.124;2023-06-22T10:38:48;3.47;;;3.00;;
44214;SDS011;29884;47.450;19.124;2023-06-22T10:41:14;4.03;;;2.85;;
44214;SDS011;29884;47.450;19.124;2023-06-22T10:43:40;5.22;;;2.95;;
44214;SDS011;29884;47.450;19.124;2023-06-22T10:46:06;5.93;;;2.55;;
44214;SDS011;29884;47.450;19.124;2023-06-22T10:48:32;3.95;;;2.95;;
44214;SDS011;29884;47.450;19.124;2023-06-22T10:50:58;3.95;;;2.97;;
44214;SDS011;29884;47.450;19.124;2023-06-22T10:53:24;2.92;;;2.55;;
44214;SDS011;29884;47.450;19.124;2023-06-22T10:55:50;3.92;;;2.72;;
44214;SDS011;29884;47.450;19.124;2023-06-22T10:58:17;3.92;;;3.00;;
44214;SDS011;29884;47.450;19.124;2023-06-22T11:00:44;3.15;;;2.67;;
44214;SDS011;29884;47.450;19.124;2023-06-22T11:03:10;3.05;;;2.60;;
44214;SDS011;29884;47.450;19.124;2023-06-22T11:05:35;3.45;;;2.90;;
44214;SDS011;29884;47.450;19.124;2023-06-22T11:08:01;4.07;;;2.70;;
44214;SDS011;29884;47.450;19.124;2023-06-22T11:10:27;8.00;;;3.10;;
44214;SDS011;29884;47.450;19.124;2023-06-22T11:12:53;5.80;;;2.63;;
44214;SDS011;29884;47.450;19.124;2023-06-22T11:15:20;4.25;;;2.90;;
44214;SDS011;29884;47.450;19.124;2023-06-22T11:17:46;4.57;;;2.90;;
44214;SDS011;29884;47.450;19.124;2023-06-22T11:20:11;6.75;;;3.22;;
44214;SDS011;29884;47.450;19.124;2023-06-22T11:22:38;5.30;;;2.42;;
44214;SDS011;29884;47.450;19.124;2023-06-22T11:25:05;8.52;;;3.13;;
44214;SDS011;29884;47.450;19.124;2023-06-22T11:27:31;3.35;;;2.67;;
44214;SDS011;29884;47.450;19.124;2023-06-22T11:29:57;4.32;;;3.28;;
44214;SDS011;29884;47.450;19.124;2023-06-22T11:32:23;5.07;;;2.70;;
44214;SDS011;29884;47.450;19.124;2023-06-22T11:34:49;3.38;;;3.08;;
44214;SDS011;29884;47.450;19.124;2023-06-22T11:37:15;3.13;;;2.75;;
44214;SDS011;29884;47.450;19.124;2023-06-22T11:39:41;4.50;;;2.90;;
44214;SDS011;29884;47.450;19.124;2023-06-22T11:42:07;6.15;;;2.80;;
44214;SDS011;29884;47.450;19.124;2023-06-22T11:44:34;3.20;;;2.65;;
44214;SDS011;29884;47.450;19.124;2023-06-22T11:47:00;6.53;;;3.10;;
44214;SDS011;29884;47.450;19.124;2023-06-22T11:49:28;3.40;;;2.38;;
44214;SDS011;29884;47.450;19.124;2023-06-22T11:51:54;5.88;;;2.88;;
44214;SDS011;29884;47.450;19.124;2023-06-22T11:54:20;3.22;;;2.70;;
44214;SDS011;29884;47.450;19.124;2023-06-22T11:56:46;5.70;;;2.95;;
44214;SDS011;29884;47.450;19.124;2023-06-22T11:59:11;5.10;;;2.83;;
44214;SDS011;29884;47.450;19.124;2023-06-22T12:01:38;4.93;;;2.53;;
44214;SDS011;29884;47.450;19.124;2023-06-22T12:04:04;6.22;;;2.60;;
44214;SDS011;29884;47.450;19.124;2023-06-22T12:06:31;3.22;;;2.67;;
44214;SDS011;29884;47.450;19.124;2023-06-22T12:08:58;3.15;;;2.53;;
44214;SDS011;29884;47.450;19.124;2023-06-22T12:11:24;6.22;;;3.00;;
44214;SDS011;29884;47.450;19.124;2023-06-22T12:13:49;4.00;;;2.67;;
44214;SDS011;29884;47.450;19.124;2023-06-22T12:16:15;4.95;;;2.75;;
44214;SDS011;29884;47.450;19.124;2023-06-22T12:18:41;4.93;;;3.45;;
44214;SDS011;29884;47.450;19.124;2023-06-22T12:21:07;5.47;;;3.15;;
44214;SDS011;29884;47.450;19.124;2023-06-22T12:23:32;3.20;;;2.58;;
44214;SDS011;29884;47.450;19.124;2023-06-22T12:25:58;3.67;;;3.00;;
44214;SDS011;29884;47.450;19.124;2023-06-22T12:28:25;6.70;;;2.70;;
44214;SDS011;29884;47.450;19.124;2023-06-22T12:30:50;3.70;;;2.72;;
44214;SDS011;29884;47.450;19.124;2023-06-22T12:33:16;6.03;;;2.97;;
44214;SDS011;29884;47.450;19.124;2023-06-22T12:35:43;4.28;;;2.58;;
44214;SDS011;29884;47.450;19.124;2023-06-22T12:38:10;4.60;;;2.53;;
44214;SDS011;29884;47.450;19.124;2023-06-22T12:40:36;3.67;;;2.90;;
44214;SDS011;29884;47.450;19.124;2023-06-22T12:43:02;4.35;;;2.60;;
44214;SDS011;29884;47.450;19.124;2023-06-22T12:45:28;4.85;;;2.92;;
44214;SDS011;29884;47.450;19.124;2023-06-22T12:47:56;3.75;;;2.70;;
44214;SDS011;29884;47.450;19.124;2023-06-22T12:50:22;4.95;;;3.08;;
44214;SDS011;29884;47.450;19.124;2023-06-22T12:52:48;3.92;;;2.78;;
44214;SDS011;29884;47.450;19.124;2023-06-22T12:55:14;5.03;;;2.40;;
44214;SDS011;29884;47.450;19.124;2023-06-22T12:57:39;4.32;;;2.53;;
44214;SDS011;29884;47.450;19.124;2023-06-22T13:00:05;4.63;;;2.83;;
44214;SDS011;29884;47.450;19.124;2023-06-22T13:02:34;5.82;;;2.80;;
44214;SDS011;29884;47.450;19.124;2023-06-22T13:05:01;7.43;;;2.85;;
44214;SDS011;29884;47.450;19.124;2023-06-22T13:07:27;3.88;;;2.88;;
44214;SDS011;29884;47.450;19.124;2023-06-22T13:09:52;8.30;;;3.22;;
44214;SDS011;29884;47.450;19.124;2023-06-22T13:12:19;6.10;;;2.78;;
44214;SDS011;29884;47.450;19.124;2023-06-22T13:14:45;6.68;;;2.60;;
44214;SDS011;29884;47.450;19.124;2023-06-22T13:17:12;3.78;;;2.55;;
44214;SDS011;29884;47.450;19.124;2023-06-22T13:19:39;3.28;;;2.78;;
44214;SDS011;29884;47.450;19.124;2023-06-22T13:22:04;4.72;;;2.65;;
44214;SDS011;29884;47.450;19.124;2023-06-22T13:24:32;4.97;;;2.53;;
44214;SDS011;29884;47.450;19.124;2023-06-22T13:26:58;6.82;;;2.90;;
44214;SDS011;29884;47.450;19.124;2023-06-22T13:29:23;5.10;;;2.72;;
44214;SDS011;29884;47.450;19.124;2023-06-22T13:31:49;4.43;;;2.78;;
44214;SDS011;29884;47.450;19.124;2023-06-22T13:34:15;4.68;;;2.80;;
44214;SDS011;29884;47.450;19.124;2023-06-22T13:36:40;4.22;;;2.83;;
44214;SDS011;29884;47.450;19.124;2023-06-22T13:39:06;3.92;;;2.78;;
44214;SDS011;29884;47.450;19.124;2023-06-22T13:41:32;5.75;;;2.60;;
44214;SDS011;29884;47.450;19.124;2023-06-22T13:43:57;3.70;;;2.50;;
44214;SDS011;29884;47.450;19.124;2023-06-22T13:46:23;6.13;;;2.72;;
44214;SDS011;29884;47.450;19.124;2023-06-22T13:48:49;4.47;;;2.72;;
44214;SDS011;29884;47.450;19.124;2023-06-22T13:51:14;4.07;;;2.83;;
44214;SDS011;29884;47.450;19.124;2023-06-22T13:53:40;5.38;;;2.85;;
44214;SDS011;29884;47.450;19.124;2023-06-22T13:56:06;3.70;;;2.63;;
44214;SDS011;29884;47.450;19.124;2023-06-22T13:58:31;6.60;;;2.67;;
44214;SDS011;29884;47.450;19.124;2023-06-22T14:00:57;6.22;;;3.15;;
44214;SDS011;29884;47.450;19.124;2023-06-22T14:03:23;4.55;;;2.10;;
44214;SDS011;29884;47.450;19.124;2023-06-22T14:05:49;5.07;;;2.72;;
44214;SDS011;29884;47.450;19.124;2023-06-22T14:08:14;4.88;;;2.63;;
44214;SDS011;29884;47.450;19.124;2023-06-22T14:10:40;8.68;;;2.75;;
44214;SDS011;29884;47.450;19.124;2023-06-22T14:13:06;5.80;;;2.80;;
44214;SDS011;29884;47.450;19.124;2023-06-22T14:15:32;2.65;;;2.40;;
44214;SDS011;29884;47.450;19.124;2023-06-22T14:17:57;5.25;;;2.65;;
44214;SDS011;29884;47.450;19.124;2023-06-22T14:20:23;4.25;;;2.75;;
44214;SDS011;29884;47.450;19.124;2023-06-22T14:22:49;4.82;;;2.58;;
44214;SDS011;29884;47.450;19.124;2023-06-22T14:25:14;6.32;;;2.67;;
44214;SDS011;29884;47.450;19.124;2023-06-22T14:27:40;3.75;;;2.65;;
44214;SDS011;29884;47.450;19.124;2023-06-22T14:30:06;4.55;;;2.53;;
44214;SDS011;29884;47.450;19.124;2023-06-22T14:32:32;3.67;;;2.70;;
44214;SDS011;29884;47.450;19.124;2023-06-22T14:34:57;3.65;;;2.40;;
44214;SDS011;29884;47.450;19.124;2023-06-22T14:37:23;6.30;;;2.75;;